Terminal Aerodrome Forecast
Issued by NWS

Current Version | Previous Version | Text Only | Print | Product List | Glossary On
Versions: 1 2 3 4 5 6 7 8 9 10 11 12 13 14 15
000
FTUS41 KBTV 251134
TAFRUT
TAF
KRUT 251134Z 2512/2612 VRB05KT P6SM OVC130
     FM251500 15014G24KT P6SM VCSH OVC060
     FM252000 15015G25KT 6SM -SHRA OVC035
     FM260000 14018G28KT 5SM -SHRA BR OVC020
     FM260600 15008KT 4SM -SHRA BR OVC015=

USA.gov is the U.S. government's official web portal to all federal, state and local government web resources and services.